Ark, Virginia
Current Conditions -  °F | °C
As of 1:35 AM on Friday 19 Dec 2014 (Local Time) from KFYJ Reporting Station
Overcast Overcast  
Wind Chill: 33°   Ceiling: 10000
Heat Index: 33°   Visibility: 10mi
Dew Point: 30°   Wind: 0mph
Humidity: 87%   Direction: NA
Pressure: 30.14"   Gusts: NA
Location:  37.44°N, 76.58°W
Report Text: KFYJ 190635Z AUTO 00000KT 10SM OVC100 01/M01 A3014 RMK AO2 T00071013
Loading
Personal Weather Stations






























Interactive Weather Map New forecast layout! Learn more

10-Day Weather Forecast

Advertisements
Track Severe Weather on mobile